Time;durP1;ratioP1;P1;durP2;ratioP2;P2;SDS_P1;SDS_P2;PMS_P1;PMS_P2;Temp;Humidity;BMP_temperature;BMP_pressure;BME280_temperature;BME280_humidity;BME280_pressure;Samples;Min_cycle;Max_cycle;Signal;HPM_P1;HPM_P2
2024/02/07 00:01:20;;;;;;;5.47;2.07;;;8.30;69.40;;;10.02;51.64;97337.41;5032209;28;20045;-62
2024/02/07 00:03:48;;;;;;;2.73;1.50;;;8.30;69.80;;;9.99;51.73;97336.91;5030724;28;20061;-62
2024/02/07 00:06:16;;;;;;;3.27;1.90;;;8.20;69.70;;;10.01;51.64;97333.06;5031598;28;20049;-62
2024/02/07 00:08:44;;;;;;;6.93;2.33;;;8.30;69.80;;;10.01;51.47;97330.41;5030629;28;20064;-63
2024/02/07 00:11:12;;;;;;;4.93;2.87;;;8.30;69.60;;;10.01;52.10;97313.63;5032054;28;20052;-62
2024/02/07 00:13:41;;;;;;;4.67;1.83;;;8.30;69.50;;;9.99;51.99;97311.13;5031832;28;20042;-63
2024/02/07 00:16:10;;;;;;;3.63;1.83;;;8.30;70.00;;;10.00;51.73;97317.25;5031378;28;20397;-63
2024/02/07 00:18:38;;;;;;;2.50;1.77;;;8.30;69.90;;;9.98;51.73;97308.63;5030540;28;20073;-63
2024/02/07 00:21:06;;;;;;;3.23;1.97;;;8.30;70.00;;;9.99;51.89;97313.78;5031692;28;20508;-63
2024/02/07 00:23:33;;;;;;;2.30;1.90;;;8.30;69.90;;;10.01;52.09;97303.81;5030256;28;20045;-63
2024/02/07 00:26:01;;;;;;;4.37;2.00;;;8.20;69.90;;;9.99;51.86;97295.16;5031170;28;20052;-62
2024/02/07 00:28:28;;;;;;;3.93;2.13;;;8.30;70.00;;;9.98;51.66;97285.53;5030348;28;20050;-62
2024/02/07 00:30:56;;;;;;;3.97;3.17;;;8.20;70.00;;;9.99;51.72;97310.28;5031487;28;20056;-62
2024/02/07 00:33:24;;;;;;;6.77;2.00;;;8.20;70.00;;;9.98;51.68;97308.63;5030164;28;20554;-63
2024/02/07 00:35:51;;;;;;;2.77;2.00;;;8.30;70.10;;;9.96;51.99;97292.81;5031096;28;20052;-62
2024/02/07 00:38:19;;;;;;;4.67;2.17;;;8.20;70.10;;;9.93;52.08;97297.66;5031427;28;20060;-62
2024/02/07 00:40:47;;;;;;;3.70;2.33;;;8.20;70.20;;;9.93;52.32;97290.50;5031466;28;20417;-63
2024/02/07 00:43:15;;;;;;;3.77;1.53;;;8.20;70.40;;;9.94;52.29;97297.47;5023536;28;20046;-62
2024/02/07 00:45:43;;;;;;;2.67;1.80;;;8.20;70.50;;;9.96;52.35;97298.13;5030760;28;20045;-63
2024/02/07 00:48:11;;;;;;;3.93;2.10;;;8.20;70.60;;;9.96;52.16;97286.69;5031194;28;20045;-62
2024/02/07 00:50:39;;;;;;;3.90;1.87;;;8.20;70.70;;;9.97;52.10;97275.88;5030640;28;20052;-63
2024/02/07 00:53:06;;;;;;;4.13;1.80;;;8.20;70.80;;;9.97;52.33;97275.06;5031068;28;20045;-62
2024/02/07 00:55:34;;;;;;;4.67;2.17;;;8.20;71.20;;;9.96;52.14;97271.56;5030694;28;20439;-62
2024/02/07 00:58:02;;;;;;;4.97;2.20;;;8.10;71.30;;;9.96;52.37;97266.22;5031536;28;20045;-62
2024/02/07 01:00:29;;;;;;;4.30;1.90;;;8.20;71.20;;;9.99;52.64;97249.13;5031118;28;20042;-62
2024/02/07 01:02:57;;;;;;;3.60;2.03;;;8.30;71.20;;;9.99;52.57;97252.63;5030891;28;20045;-62
2024/02/07 01:05:25;;;;;;;3.93;2.07;;;8.30;71.30;;;10.00;52.36;97254.28;5030718;28;20049;-63
2024/02/07 01:07:52;;;;;;;7.43;2.20;;;8.30;71.40;;;10.01;52.53;97260.44;5030757;28;20053;-62
2024/02/07 01:10:20;;;;;;;3.60;2.93;;;8.30;71.40;;;9.98;52.77;97256.28;5029932;28;20076;-62
2024/02/07 01:12:48;;;;;;;3.60;1.83;;;8.20;72.60;;;9.96;52.75;97260.09;5031066;28;20413;-63
2024/02/07 01:15:15;;;;;;;5.63;2.00;;;8.10;72.10;;;9.95;52.74;97256.59;5030546;28;20413;-63
2024/02/07 01:17:43;;;;;;;4.10;1.87;;;8.10;72.20;;;9.94;52.85;97238.97;5030709;28;20060;-62
2024/02/07 01:20:11;;;;;;;4.77;2.40;;;8.20;72.20;;;9.95;52.60;97245.97;5030785;28;20045;-63
2024/02/07 01:22:39;;;;;;;2.90;1.57;;;8.20;72.30;;;9.94;52.70;97233.66;5030944;28;20086;-63
2024/02/07 01:25:07;;;;;;;4.03;2.50;;;8.20;72.30;;;9.91;52.69;97231.34;5030282;28;20042;-63
2024/02/07 01:27:36;;;;;;;4.97;2.37;;;8.10;72.80;;;9.91;53.01;97218.06;5030484;28;20591;-62
2024/02/07 01:30:07;;;;;;;3.10;2.00;;;8.10;72.90;;;9.90;53.11;97221.69;5030711;28;20041;-62
2024/02/07 01:32:34;;;;;;;3.97;2.63;;;8.10;72.80;;;9.90;53.17;97221.69;5030728;28;20045;-63
2024/02/07 01:35:05;;;;;;;6.17;2.33;;;8.20;72.70;;;9.91;53.36;97223.38;5030357;28;20041;-63
2024/02/07 01:37:34;;;;;;;5.67;2.30;;;8.20;72.60;;;9.96;53.24;97230.84;5030596;28;20041;-62
2024/02/07 01:40:02;;;;;;;4.63;1.80;;;8.20;72.50;;;9.95;53.41;97223.88;5029537;28;20045;-62
2024/02/07 01:42:31;;;;;;;2.90;1.70;;;8.30;72.60;;;9.95;52.99;97237.16;5030775;28;20042;-62
2024/02/07 01:45:30;;;;;;;3.73;2.07;;;8.30;72.80;;;9.96;52.83;97225.53;5032944;28;20068;-62
2024/02/07 01:47:58;;;;;;;4.33;2.50;;;8.30;72.80;;;9.98;53.49;97236.81;5032279;28;20080;-63
2024/02/07 01:50:27;;;;;;;3.50;2.17;;;8.30;72.80;;;9.98;53.25;97220.88;5032348;28;20037;-63
2024/02/07 01:52:58;;;;;;;4.07;2.03;;;8.30;72.80;;;9.97;53.58;97209.41;5033611;28;20385;-62
2024/02/07 01:55:28;;;;;;;2.90;1.70;;;8.30;72.80;;;10.00;53.25;97203.75;5034122;28;20048;-62
2024/02/07 01:57:58;;;;;;;3.07;2.20;;;8.30;72.80;;;10.03;53.42;97206.06;5017376;28;20053;-62
2024/02/07 02:00:25;;;;;;;3.27;1.70;;;8.40;72.80;;;10.02;53.33;97196.44;5033113;28;20397;-62
2024/02/07 02:02:54;;;;;;;2.63;1.87;;;8.40;72.80;;;10.01;53.32;97192.09;5034340;28;20045;-63
2024/02/07 02:05:21;;;;;;;3.47;1.70;;;8.40;72.80;;;9.98;53.27;97181.81;5026048;28;20049;-63
2024/02/07 02:07:50;;;;;;;4.30;2.23;;;8.40;72.90;;;10.02;53.79;97187.63;5016969;28;20405;-62
2024/02/07 02:10:18;;;;;;;4.90;2.37;;;8.40;72.80;;;10.07;53.33;97195.94;5016789;28;20045;-62
2024/02/07 02:12:46;;;;;;;3.37;1.90;;;8.50;72.60;;;10.10;53.60;97186.78;5034145;28;20049;-63
2024/02/07 02:15:14;;;;;;;5.60;2.20;;;8.50;72.60;;;10.10;53.61;97176.13;5032312;28;20050;-63
2024/02/07 02:17:42;;;;;;;5.57;2.27;;;8.50;73.50;;;10.07;53.37;97173.81;5032765;28;20515;-62
2024/02/07 02:20:10;;;;;;;3.60;2.17;;;8.50;72.70;;;10.08;53.35;97173.66;5032438;28;20050;-63
2024/02/07 02:23:02;;;;;;;2.27;1.70;;;8.50;72.80;;;10.06;53.48;97175.63;5034013;28;20045;-62
2024/02/07 02:25:50;;;;;;;5.30;2.40;;;8.50;73.00;;;10.02;53.94;97175.16;5010189;28;20052;-62
2024/02/07 02:28:57;;;;;;;2.77;1.83;;;8.40;73.20;;;10.02;53.78;97169.84;5033904;28;20536;-62
2024/02/07 02:31:26;;;;;;;3.83;1.83;;;8.40;73.40;;;10.04;53.96;97154.56;5026061;28;20048;-62
2024/02/07 02:33:56;;;;;;;3.20;1.73;;;8.50;73.50;;;10.04;54.37;97137.75;5032467;28;20053;-63
2024/02/07 02:36:24;;;;;;;3.03;1.63;;;8.40;73.50;;;10.07;53.94;97136.59;5031510;28;20041;-63
2024/02/07 02:38:52;;;;;;;5.03;2.57;;;8.40;73.50;;;10.05;54.00;97139.41;5032512;28;20054;-63
2024/02/07 02:41:20;;;;;;;4.00;2.00;;;8.40;73.80;;;10.05;54.16;97142.91;5033510;28;20044;-62
2024/02/07 02:43:48;;;;;;;2.60;1.70;;;8.50;74.00;;;10.08;54.27;97132.91;5033503;28;20041;-63
2024/02/07 02:46:16;;;;;;;5.97;2.20;;;8.50;73.80;;;10.10;54.12;97117.63;5031776;28;20421;-63
2024/02/07 02:48:44;;;;;;;3.70;2.20;;;8.50;73.80;;;10.12;54.09;97119.13;5033476;28;20093;-63
2024/02/07 02:51:12;;;;;;;3.13;1.90;;;8.50;73.90;;;10.16;53.71;97109.78;5033204;28;20042;-63
2024/02/07 02:53:39;;;;;;;4.60;1.90;;;8.50;73.70;;;10.16;54.13;97112.47;5033335;28;20046;-62
2024/02/07 02:56:09;;;;;;;2.90;2.03;;;8.50;74.00;;;10.18;54.19;97118.44;5030704;28;20049;-62
2024/02/07 02:58:37;;;;;;;3.70;1.63;;;8.50;73.90;;;10.17;53.84;97108.78;5033328;28;20033;-62
2024/02/07 03:01:11;;;;;;;3.97;2.00;;;8.50;73.90;;;10.17;54.45;97095.47;5033209;28;20041;-62
2024/02/07 03:03:44;;;;;;;2.73;1.60;;;8.50;73.90;;;10.19;53.71;97100.63;5015772;28;20056;-63
2024/02/07 03:06:28;;;;;;;4.50;1.97;;;8.50;73.90;;;10.21;53.88;97096.78;5031471;28;20425;-62
2024/02/07 03:09:06;;;;;;;;;;;8.60;73.70;;;10.22;54.08;97101.13;5033832;28;20412;-63
2024/02/07 03:11:35;;;;;;;4.50;2.63;;;8.60;73.60;;;10.27;53.77;97097.94;5024995;28;19921;-63
2024/02/07 03:14:05;;;;;;;4.40;1.93;;;8.60;73.70;;;10.28;54.17;97085.50;5031596;28;20061;-62
2024/02/07 03:16:34;;;;;;;4.60;2.27;;;8.60;73.90;;;10.31;53.78;97093.13;5031391;28;20045;-63
2024/02/07 03:19:01;;;;;;;2.27;1.77;;;8.60;74.00;;;10.34;53.83;97096.28;5033030;28;20052;-63
2024/02/07 03:21:30;;;;;;;3.90;2.00;;;8.70;73.80;;;10.36;53.73;97099.59;5032893;28;20041;-62
2024/02/07 03:23:58;;;;;;;2.97;1.73;;;8.60;73.70;;;10.35;53.96;97094.44;5032911;28;20417;-63
2024/02/07 03:26:25;;;;;;;2.43;1.67;;;8.70;73.70;;;10.38;53.71;97091.44;5032365;28;20045;-62
2024/02/07 03:28:53;;;;;;;2.70;1.80;;;8.70;73.50;;;10.41;53.79;97091.09;5032588;28;20064;-63
2024/02/07 03:31:21;;;;;;;4.23;1.77;;;8.80;73.30;;;10.43;54.04;97084.59;5032676;28;20051;-63
2024/02/07 03:33:49;;;;;;;4.10;2.03;;;8.80;73.10;;;10.43;54.06;97092.59;5032655;28;20050;-63
2024/02/07 03:36:16;;;;;;;2.83;1.50;;;8.90;73.00;;;10.47;53.80;97089.56;5031588;28;20057;-63
2024/02/07 03:38:44;;;;;;;4.10;2.10;;;9.00;72.70;;;10.48;53.73;97080.59;5032938;28;20034;-62
2024/02/07 03:41:11;;;;;;;3.93;1.77;;;9.00;72.70;;;10.51;54.28;97085.59;5031292;28;20425;-63
2024/02/07 03:43:39;;;;;;;3.67;1.70;;;9.00;72.60;;;10.54;53.95;97072.72;5032908;28;20045;-63
2024/02/07 03:46:07;;;;;;;3.00;1.47;;;9.00;72.30;;;10.54;53.88;97078.06;5031988;28;20041;-63
2024/02/07 03:48:38;;;;;;;4.37;1.83;;;9.00;72.40;;;10.58;53.68;97079.34;5032443;28;20092;-63
2024/02/07 03:51:08;;;;;;;4.30;2.00;;;9.10;72.30;;;10.57;53.79;97072.38;5032618;28;20053;-62
2024/02/07 03:53:36;;;;;;;5.60;1.87;;;9.10;72.30;;;10.59;54.17;97066.91;5032755;28;20037;-62
2024/02/07 03:56:04;;;;;;;3.13;1.43;;;9.10;72.10;;;10.57;54.01;97068.91;5030841;28;20049;-63
2024/02/07 03:58:32;;;;;;;3.90;1.90;;;9.10;72.70;;;10.59;53.92;97064.22;5024447;28;20062;-63
2024/02/07 04:01:00;;;;;;;2.63;1.77;;;9.10;72.70;;;10.58;54.12;97068.72;5032099;28;20045;-62
2024/02/07 04:03:27;;;;;;;5.20;1.83;;;9.10;72.70;;;10.56;54.32;97064.56;5031875;28;20044;-63
2024/02/07 04:05:56;;;;;;;3.73;2.03;;;9.10;72.80;;;10.61;54.08;97064.88;5031527;28;20049;-62
2024/02/07 04:08:23;;;;;;;2.07;1.40;;;9.10;72.90;;;10.63;54.27;97057.56;5013888;28;20053;-63
2024/02/07 04:10:52;;;;;;;4.30;1.90;;;9.20;72.80;;;10.64;54.04;97059.19;5031865;28;20064;-62
2024/02/07 05:16:49;;;;;;;5.67;2.00;;;9.00;76.70;;;10.31;56.56;96998.19;5024372;28;20037;-62
2024/02/07 05:19:17;;;;;;;4.07;2.50;;;9.00;76.70;;;10.36;56.03;96998.50;5030356;28;20045;-62
2024/02/07 05:21:44;;;;;;;6.03;1.93;;;9.00;76.30;;;10.42;56.18;96986.31;5030718;28;20045;-61
2024/02/07 05:24:13;;;;;;;3.60;1.90;;;9.00;76.30;;;10.47;55.92;96999.09;5029520;28;20045;-62
2024/02/07 05:26:40;;;;;;;3.70;1.80;;;9.00;75.80;;;10.51;55.76;96992.44;5022895;28;20052;-62
2024/02/07 05:29:08;;;;;;;3.90;1.53;;;9.00;75.50;;;10.58;55.70;96988.84;5030111;28;20053;-61
2024/02/07 05:31:36;;;;;;;3.90;1.80;;;9.00;75.30;;;10.62;55.33;96990.19;5030904;28;20057;-61
2024/02/07 05:34:04;;;;;;;4.60;2.37;;;9.10;74.60;;;10.62;55.26;96989.34;5030944;28;20054;-61
2024/02/07 05:36:31;;;;;;;6.87;3.97;;;9.10;73.90;;;10.63;55.09;96985.69;5030333;28;20038;-62
2024/02/07 05:39:02;;;;;;;2.27;1.93;;;9.10;73.80;;;10.57;54.63;96981.88;5030887;28;20042;-61
2024/02/07 05:41:29;;;;;;;4.87;1.80;;;9.00;73.60;;;10.57;54.95;96979.22;5030415;28;20053;-61
2024/02/07 05:43:57;;;;;;;2.63;1.80;;;9.00;74.00;;;10.57;54.81;96968.59;5030731;28;20406;-62
2024/02/07 05:46:25;;;;;;;4.33;1.77;;;9.00;73.90;;;10.54;55.12;96962.78;5030169;28;20116;-62
2024/02/07 05:48:52;;;;;;;5.03;2.00;;;9.00;73.80;;;10.56;54.84;96966.09;5029333;28;20045;-61
2024/02/07 05:51:21;;;;;;;4.17;1.80;;;9.00;73.90;;;10.56;55.13;96963.44;5030272;28;20428;-61
2024/02/07 05:53:49;;;;;;;2.80;1.90;;;9.00;73.80;;;10.55;54.86;96956.47;5029376;28;20045;-61
2024/02/07 05:56:17;;;;;;;2.80;2.10;;;9.00;73.60;;;10.50;54.89;96950.84;5029066;28;20527;-61
2024/02/07 05:58:47;;;;;;;2.23;1.73;;;8.90;73.60;;;10.41;54.92;96956.22;5030545;28;20052;-61
2024/02/07 06:01:15;;;;;;;2.43;1.63;;;8.80;73.80;;;10.40;55.26;96943.09;5029351;28;20041;-61
2024/02/07 06:03:50;;;;;;;4.77;2.97;;;8.80;74.10;;;10.37;54.71;96936.31;5030174;28;20045;-61
2024/02/07 06:06:19;;;;;;;4.43;2.63;;;8.90;74.20;;;10.38;55.03;96945.09;5028871;28;20052;-61
2024/02/07 06:08:49;;;;;;;4.50;2.23;;;8.80;74.20;;;10.36;55.27;96939.13;5029208;28;20045;-62
2024/02/07 06:11:16;;;;;;;3.47;2.00;;;8.80;74.50;;;10.36;55.33;96939.94;5029148;28;20042;-62
2024/02/07 06:13:44;;;;;;;3.90;2.17;;;8.80;74.50;;;10.38;55.48;96942.44;5030260;28;20037;-61
2024/02/07 06:16:12;;;;;;;3.57;2.33;;;8.80;74.60;;;10.38;55.36;96923.81;5029738;28;20049;-61
2024/02/07 06:18:39;;;;;;;4.10;2.37;;;8.80;74.80;;;10.39;55.29;96928.97;5028897;28;20061;-61
2024/02/07 06:21:07;;;;;;;3.03;1.70;;;8.80;74.80;;;10.43;55.26;96929.44;5029126;28;20043;-61
2024/02/07 06:23:35;;;;;;;4.23;2.17;;;8.90;74.80;;;10.45;54.84;96932.75;5020863;28;20048;-61
2024/02/07 06:26:02;;;;;;;4.00;2.57;;;8.90;74.80;;;10.48;54.99;96934.22;5029767;28;20490;-61
2024/02/07 06:28:30;;;;;;;5.70;2.97;;;9.00;74.80;;;10.47;54.98;96927.22;5028940;28;20050;-61
2024/02/07 06:30:58;;;;;;;4.60;3.00;;;8.90;74.80;;;10.44;55.11;96921.25;5032624;28;20429;-61
2024/02/07 06:33:25;;;;;;;5.07;2.30;;;8.90;75.10;;;10.45;55.50;96940.75;5033254;28;20045;-61
2024/02/07 06:35:53;;;;;;;4.03;1.97;;;9.00;75.00;;;10.41;55.40;96944.72;5033806;28;20049;-61
2024/02/07 06:38:21;;;;;;;4.73;2.13;;;8.90;75.30;;;10.36;55.65;96944.47;5032446;28;20059;-60
2024/02/07 06:40:49;;;;;;;5.00;3.20;;;8.90;75.30;;;10.37;55.27;96946.94;5033581;28;20045;-61
2024/02/07 06:43:16;;;;;;;4.70;3.07;;;8.90;75.40;;;10.39;55.49;96936.94;5032448;28;20393;-60
2024/02/07 06:45:44;;;;;;;5.93;3.37;;;8.90;75.30;;;10.42;55.72;96941.91;5033022;28;20048;-61
2024/02/07 06:48:11;;;;;;;6.10;2.37;;;8.90;75.40;;;10.46;55.34;96936.22;5032402;28;20046;-60
2024/02/07 06:50:39;;;;;;;3.33;2.17;;;8.90;75.10;;;10.44;55.33;96936.41;5031909;28;20058;-60
2024/02/07 06:53:07;;;;;;;6.70;2.50;;;8.90;74.90;;;10.41;55.50;96944.72;5032216;28;20221;-60
2024/02/07 06:55:37;;;;;;;4.20;2.97;;;8.90;75.10;;;10.44;55.19;96944.38;5032097;28;20054;-61
2024/02/07 06:58:05;;;;;;;6.47;2.50;;;9.00;74.80;;;10.43;55.66;96940.91;5032202;28;20042;-61
2024/02/07 07:00:33;;;;;;;7.60;2.90;;;9.00;74.60;;;10.48;55.13;96943.03;5031985;28;20412;-63
2024/02/07 07:03:00;;;;;;;6.07;2.83;;;9.00;74.60;;;10.43;55.70;96937.44;5033410;28;20033;-62
2024/02/07 07:05:28;;;;;;;3.93;2.47;;;9.00;74.70;;;10.47;55.49;96944.06;5032983;28;20508;-62
2024/02/07 07:07:56;;;;;;;2.93;2.23;;;9.00;74.80;;;10.50;55.49;96951.66;5033309;28;20052;-62
2024/02/07 07:10:23;;;;;;;6.57;2.60;;;9.00;74.60;;;10.50;55.56;96953.50;5033224;28;20038;-61
2024/02/07 07:12:51;;;;;;;4.13;2.20;;;9.00;74.30;;;10.49;55.04;96949.16;5031966;28;20042;-61
2024/02/07 07:15:20;;;;;;;3.93;2.13;;;9.00;74.50;;;10.46;55.34;96949.53;5032930;28;20045;-61
2024/02/07 07:18:00;;;;;;;4.10;2.40;;;9.00;74.30;;;10.49;55.39;96949.16;5025045;28;20030;-62
2024/02/07 07:20:30;;;;;;;3.83;2.30;;;9.00;73.90;;;10.49;55.23;96933.19;5032969;28;20496;-61
2024/02/07 07:22:58;;;;;;;5.90;2.73;;;9.00;74.00;;;10.48;55.09;96931.56;5033047;28;20033;-61
2024/02/07 07:25:43;;;;;;;5.43;2.45;;;9.00;73.90;;;10.49;55.22;96925.22;5032165;28;20048;-60
2024/02/07 07:28:11;;;;;;;4.97;2.50;;;9.00;73.80;;;10.44;54.94;96928.44;5032877;28;20046;-60
2024/02/07 07:30:39;;;;;;;5.23;2.60;;;9.00;73.50;;;10.49;55.28;96925.22;5029739;28;20512;-62
2024/02/07 07:33:07;;;;;;;3.57;2.27;;;9.10;73.70;;;10.44;55.37;96925.75;5031865;28;20052;-63
2024/02/07 07:35:35;;;;;;;4.87;1.90;;;9.00;73.80;;;10.44;55.17;96939.06;5030189;28;20042;-61
2024/02/07 07:38:04;;;;;;;5.50;2.53;;;9.00;73.90;;;10.47;55.23;96930.75;5032619;28;20509;-62
2024/02/07 07:40:39;;;;;;;3.10;2.40;;;9.00;73.50;;;10.49;55.06;96930.53;5032289;28;20405;-62
2024/02/07 07:43:07;;;;;;;5.03;2.53;;;9.00;73.90;;;10.48;55.31;96929.72;5030844;28;20046;-62
2024/02/07 07:45:35;;;;;;;6.70;3.10;;;9.00;73.40;;;10.51;54.99;96926.72;5030739;28;20049;-62
2024/02/07 07:48:03;;;;;;;4.13;2.20;;;9.10;73.70;;;10.53;55.19;96918.56;5032551;28;20045;-64
2024/02/07 07:50:31;;;;;;;6.27;2.60;;;9.00;73.50;;;10.48;55.30;96919.06;5029259;28;20056;-65
2024/02/07 07:52:58;;;;;;;6.10;2.67;;;9.10;73.70;;;10.51;55.29;96909.94;5031845;28;20416;-65
2024/02/07 07:55:26;;;;;;;4.97;2.30;;;9.00;73.60;;;10.51;55.02;96918.72;5030782;28;20049;-65
2024/02/07 07:57:54;;;;;;;5.53;2.50;;;9.10;73.50;;;10.55;54.91;96928.00;5024401;28;20524;-65
2024/02/07 08:00:22;;;;;;;3.77;2.43;;;9.10;73.10;;;10.58;54.92;96924.16;5032816;28;20037;-66
2024/02/07 08:02:51;;;;;;;3.27;2.33;;;9.10;73.50;;;10.57;55.14;96911.88;5030931;28;20516;-65
2024/02/07 08:05:18;;;;;;;7.37;2.40;;;9.10;73.30;;;10.61;55.11;96921.16;5032264;28;20038;-65
2024/02/07 08:07:46;;;;;;;6.47;2.27;;;9.10;73.50;;;10.65;54.59;96906.47;5032191;28;20426;-65
2024/02/07 08:10:14;;;;;;;4.93;2.63;;;9.10;73.00;;;10.68;54.76;96910.59;5032458;28;20057;-65
2024/02/07 08:12:41;;;;;;;4.33;2.77;;;9.10;73.30;;;10.68;54.78;96919.41;5031985;28;20057;-64
2024/02/07 08:15:09;;;;;;;3.67;2.33;;;9.20;72.90;;;10.71;54.69;96935.03;5031631;28;20064;-65
2024/02/07 08:17:37;;;;;;;5.20;2.90;;;9.20;73.10;;;10.69;54.90;96926.41;5032031;28;20284;-64
2024/02/07 08:20:06;;;;;;;4.70;3.73;;;9.20;73.30;;;10.71;54.65;96923.56;5018741;28;20046;-65
2024/02/07 08:22:33;;;;;;;5.37;2.67;;;9.20;73.30;;;10.77;54.63;96914.84;5026834;28;20052;-65
2024/02/07 08:25:01;;;;;;;3.47;2.47;;;9.20;73.00;;;10.77;54.61;96921.00;5025906;28;20512;-65
2024/02/07 08:27:28;;;;;;;6.70;2.90;;;9.30;72.80;;;10.76;54.77;96921.16;5023344;28;20080;-65
2024/02/07 08:29:56;;;;;;;5.67;2.60;;;9.30;73.30;;;10.72;54.96;96915.41;5025015;28;20050;-65
2024/02/07 08:32:24;;;;;;;5.40;2.40;;;9.30;73.30;;;10.79;54.63;96915.50;5025418;28;20372;-65
2024/02/07 08:34:52;;;;;;;5.93;2.60;;;9.30;73.10;;;10.79;54.62;96905.66;5024805;28;20057;-65
2024/02/07 08:37:26;;;;;;;6.47;2.97;;;9.30;73.10;;;10.81;54.67;96916.97;5025615;28;20060;-65
2024/02/07 08:39:55;;;;;;;4.93;2.70;;;9.30;74.10;;;10.80;54.76;96896.69;5024594;28;20069;-65
2024/02/07 08:42:22;;;;;;;4.13;2.70;;;9.30;73.40;;;10.86;54.59;96910.25;5024779;28;20049;-65
2024/02/07 08:44:50;;;;;;;4.20;2.50;;;9.30;73.00;;;10.81;54.80;96895.66;5021846;28;20042;-66
2024/02/07 08:47:17;;;;;;;3.37;2.20;;;9.40;73.50;;;10.88;54.53;96902.94;5027191;28;20045;-65
2024/02/07 08:49:45;;;;;;;6.90;3.43;;;9.40;73.20;;;10.93;54.74;96901.38;5023823;28;20049;-65
2024/02/07 08:52:13;;;;;;;6.63;3.00;;;9.40;73.10;;;10.98;54.75;96908.84;5025104;28;20049;-65
2024/02/07 08:54:40;;;;;;;3.50;2.57;;;9.50;73.30;;;11.01;54.05;96895.13;5024415;28;20053;-65
2024/02/07 08:57:08;;;;;;;8.93;2.90;;;9.50;73.00;;;11.03;54.65;96896.63;5026187;28;20057;-65
2024/02/07 08:59:35;;;;;;;5.80;2.60;;;9.60;72.60;;;11.10;54.51;96901.22;5025147;28;20050;-65
2024/02/07 09:02:09;;;;;;;3.80;2.70;;;9.60;72.80;;;11.13;54.15;96883.03;5026764;28;20049;-65
2024/02/07 09:04:36;;;;;;;4.97;2.22;;;9.70;72.90;;;11.19;54.45;96871.66;5026290;28;20049;-65
2024/02/07 09:07:04;;;;;;;5.43;2.63;;;9.70;72.70;;;11.25;54.13;96888.72;5026394;28;20053;-65
2024/02/07 09:09:32;;;;;;;5.03;2.70;;;9.80;73.00;;;11.29;54.36;96884.69;5027302;28;20064;-65
2024/02/07 09:11:59;;;;;;;5.87;2.50;;;9.80;72.80;;;11.35;54.63;96883.94;5024193;28;20057;-65
2024/02/07 09:14:27;;;;;;;6.77;2.60;;;9.90;72.60;;;11.38;54.25;96880.94;5028037;28;20049;-65
2024/02/07 09:16:54;;;;;;;6.30;2.50;;;10.00;72.60;;;11.43;54.47;96883.03;5026351;28;20057;-64
2024/02/07 09:19:22;;;;;;;5.00;2.57;;;10.00;72.40;;;11.47;54.13;96886.97;5027405;28;20042;-64
2024/02/07 09:21:50;;;;;;;6.20;2.77;;;10.00;72.60;;;11.51;54.23;96884.75;5024723;28;20509;-65
2024/02/07 09:24:17;;;;;;;5.33;2.70;;;10.10;72.70;;;11.46;54.65;96887.16;5026549;28;20033;-65
2024/02/07 09:26:45;;;;;;;4.23;2.50;;;10.00;72.40;;;11.53;54.48;96880.88;5026086;28;20053;-65
2024/02/07 09:29:13;;;;;;;6.33;3.17;;;10.10;72.70;;;11.57;54.16;96882.19;5028196;28;20297;-65
2024/02/07 09:31:40;;;;;;;6.03;2.63;;;10.20;72.40;;;11.55;54.65;96889.53;5025681;28;20501;-65
2024/02/07 09:34:08;;;;;;;5.87;2.90;;;10.20;72.50;;;11.54;54.43;96887.06;5025474;28;20064;-65
2024/02/07 09:36:38;;;;;;;3.70;2.50;;;10.20;72.30;;;11.61;54.31;96866.63;5021905;28;20050;-65
2024/02/07 09:39:06;;;;;;;3.33;2.10;;;10.30;72.50;;;11.67;54.56;96878.41;5024277;28;20504;-65
2024/02/07 09:41:38;;;;;;;5.27;2.67;;;10.30;72.30;;;11.73;54.37;96878.50;5023315;28;20041;-65
2024/02/07 09:44:07;;;;;;;5.40;2.70;;;10.40;72.00;;;11.75;53.81;96878.31;5026859;28;20429;-65
2024/02/07 09:46:37;;;;;;;6.00;2.40;;;10.40;71.90;;;11.74;54.38;96872.13;5027760;28;20053;-65
2024/02/07 09:49:07;;;;;;;4.67;2.80;;;10.40;71.70;;;11.74;54.12;96866.78;5022709;28;20402;-64
2024/02/07 09:51:35;;;;;;;6.23;2.23;;;10.40;71.90;;;11.79;54.29;96872.41;5029463;28;20045;-65
2024/02/07 09:54:03;;;;;;;3.20;1.97;;;10.40;72.70;;;11.87;54.00;96874.13;5018513;28;20547;-65
2024/02/07 09:56:33;;;;;;;6.40;3.60;;;10.50;72.00;;;11.91;54.58;96867.44;5026778;28;20540;-65
2024/02/07 09:59:02;;;;;;;3.20;1.97;;;10.50;72.00;;;11.93;54.14;96867.25;5027395;28;20045;-65
2024/02/07 10:01:30;;;;;;;6.23;2.33;;;10.50;71.60;;;11.93;54.05;96865.41;5029458;28;20041;-64
2024/02/07 10:04:02;;;;;;;3.47;2.43;;;10.50;71.80;;;11.98;54.07;96868.34;5027833;28;20045;-65
2024/02/07 10:06:32;;;;;;;3.10;2.07;;;10.60;72.00;;;11.99;53.86;96863.81;5014796;28;20048;-64
2024/02/07 10:09:00;;;;;;;3.47;2.30;;;10.50;71.50;;;11.98;53.96;96851.50;5032895;28;20050;-64
2024/02/07 10:11:30;;;;;;;3.73;2.47;;;10.50;71.10;;;11.96;53.83;96851.69;5031825;28;20037;-65
2024/02/07 10:13:58;;;;;;;5.30;1.90;;;10.50;71.80;;;11.98;53.93;96855.00;5015222;28;20056;-64
2024/02/07 10:16:27;;;;;;;4.30;2.10;;;10.50;71.60;;;12.01;53.49;96859.13;5031844;28;20052;-64
2024/02/07 10:18:55;;;;;;;3.47;1.80;;;10.60;71.70;;;12.02;53.60;96848.28;5029616;28;20494;-65
2024/02/07 10:21:36;;;;;;;3.13;2.07;;;10.60;71.30;;;12.07;53.40;96854.88;5032904;28;20033;-64
2024/02/07 10:24:05;;;;;;;4.07;2.10;;;10.70;70.90;;;12.07;53.48;96855.69;5032510;28;20045;-65
2024/02/07 10:26:33;;;;;;;5.57;2.23;;;10.70;71.20;;;12.10;53.57;96866.00;5032475;28;20041;-64
2024/02/07 10:29:05;;;;;;;2.90;2.10;;;10.70;71.00;;;12.04;53.38;96855.25;5031094;28;20409;-65
2024/02/07 10:31:33;;;;;;;5.10;2.17;;;10.70;70.80;;;12.04;53.37;96857.91;5031536;28;20489;-65
2024/02/07 10:34:01;;;;;;;3.57;1.87;;;10.70;71.00;;;12.08;53.28;96860.03;5026229;28;20521;-65
2024/02/07 10:36:28;;;;;;;2.73;1.77;;;10.70;71.00;;;12.09;53.19;96860.84;5032741;28;20046;-65
2024/02/07 10:39:03;;;;;;;1.87;1.60;;;10.70;70.70;;;12.07;53.58;96858.34;5033186;28;20064;-65
2024/02/07 10:41:30;;;;;;;3.93;1.70;;;10.70;70.20;;;12.10;53.31;96860.66;5015737;28;20042;-64
2024/02/07 10:44:09;;;;;;;2.30;1.43;;;10.70;70.50;;;12.08;53.24;96844.03;5033337;28;20048;-64
2024/02/07 10:46:37;;;;;;;2.20;1.60;;;10.70;70.60;;;12.09;53.27;96840.31;5033151;28;20037;-65
2024/02/07 10:49:10;;;;;;;1.87;1.67;;;10.70;70.60;;;12.08;53.27;96840.50;5033301;28;20049;-65
2024/02/07 10:51:40;;;;;;;2.93;1.43;;;10.70;70.70;;;12.11;53.28;96830.28;5030318;28;20074;-65
2024/02/07 10:54:08;;;;;;;2.80;1.60;;;10.70;70.70;;;12.14;53.57;96837.91;5031809;28;20053;-65
2024/02/07 10:56:37;;;;;;;4.03;1.67;;;10.80;70.70;;;12.20;53.62;96839.00;5032952;28;20060;-65
2024/02/07 10:59:05;;;;;;;2.40;1.47;;;10.80;70.50;;;12.21;53.43;96832.63;5032419;28;20485;-65
2024/02/07 11:01:33;;;;;;;1.50;1.40;;;10.80;70.40;;;12.10;53.45;96839.31;5033300;28;20037;-64
2024/02/07 11:04:01;;;;;;;2.77;1.60;;;10.70;70.20;;;12.12;53.37;96817.78;5032092;28;20046;-64
2024/02/07 11:06:29;;;;;;;3.83;1.87;;;10.70;70.70;;;12.12;53.51;96821.28;5032775;28;20052;-63
2024/02/07 11:08:58;;;;;;;4.03;1.87;;;10.80;70.50;;;12.12;53.25;96807.13;5031785;28;20068;-61
2024/02/07 11:11:27;;;;;;;3.40;1.60;;;10.80;70.90;;;12.13;53.52;96803.41;5032069;28;20037;-63
2024/02/07 11:13:57;;;;;;;3.17;1.70;;;10.80;70.70;;;12.16;53.40;96803.03;5031945;28;20053;-63
2024/02/07 11:16:25;;;;;;;3.53;2.00;;;10.80;70.70;;;12.17;53.27;96788.66;5030590;28;20489;-62
2024/02/07 11:18:53;;;;;;;2.63;1.10;;;10.90;70.40;;;12.12;53.36;96793.78;5033061;28;20041;-65
2024/02/07 11:21:36;;;;;;;4.13;1.53;;;10.90;70.40;;;12.13;53.52;96785.56;5031702;28;20041;-65
2024/02/07 11:24:06;;;;;;;1.63;1.37;;;10.90;70.10;;;12.13;53.47;96776.72;5031507;28;20045;-65
2024/02/07 11:26:34;;;;;;;3.43;1.47;;;10.80;70.10;;;12.10;53.45;96806.47;5031338;28;20046;-65
2024/02/07 11:29:03;;;;;;;3.57;1.67;;;10.80;70.40;;;12.07;53.54;96789.00;5031593;28;20034;-65
2024/02/07 11:31:34;;;;;;;2.70;1.52;;;10.80;70.00;;;12.12;53.48;96767.09;5032862;28;20481;-65
2024/02/07 11:34:03;;;;;;;2.58;1.35;;;10.80;70.20;;;12.12;53.30;96775.91;5031316;28;20041;-65
2024/02/07 11:36:33;;;;;;;4.03;2.10;;;10.90;70.10;;;12.18;53.50;96771.66;5031040;28;20037;-65